Rio Grande, Texas
Current Conditions -  °F | °C
As of 1:55 PM on Saturday 25 Oct 2014 (Local Time) from KEBG Reporting Station
Clear Clear  
Wind Chill: 86°   Ceiling: Unl
Heat Index: 86°   Visibility: 10mi
Dew Point: 59°   Wind: 5mph
Humidity: 40%   Direction: 40°NE
Pressure: 30.12"   Gusts: NA
Location:  26.5735°N, 98.695°W
Report Text: KEBG 251855Z AUTO 04004KT 10SM CLR 30/15 A3012 RMK AO2 T03010152
Loading
Personal Weather Stations






























Interactive Weather Map
Tropical Storm Tracking
New forecast layout! Learn more

10-Day Weather Forecast

Advertisements
Track Severe Weather on mobile